• Join FlightAware (Why Join?)
  • Login
  • US Flag 
07:24PM EDT


 

Airport Tracker/Info


-or-


 

Live Flight TrackerFlight Track Log ✈ SLI2311 ✈ 28-Aug-2013 ✈ MMGL / GDL - MMCL / CUL

Flight Track Log - Related Links

Times and Time Zones

All times are in EDT time to prevent confusion due to time zone crossing. See the SLI2311 flight status page for this flight to view local times or setup timezone preferences in your user account.

Time Position Orientation Groundspeed Altitude Reporting Facility
EDT Latitude Longitude Course Direction KTS MPH feet Rate Location/Type
05:17PM 20.8128 -103.5857 319° Northwest  Level Estimated
05:18PM 20.8855 -103.6545 319° Northwest  Level Estimated
05:19PM 20.9582 -103.7233 318° Northwest  Level Estimated
05:20PM 21.0308 -103.7923 318° Northwest  Level Estimated
05:21PM 21.1034 -103.8613 318° Northwest  Level Estimated
05:22PM 21.1760 -103.9303 318° Northwest  Level Estimated
05:23PM 21.2485 -103.9995 318° Northwest  Level Estimated
05:24PM 21.3210 -104.0687 318° Northwest  Level Estimated
05:25PM 21.3935 -104.1379 318° Northwest  Level Estimated
05:26PM 21.4660 -104.2073 318° Northwest  Level Estimated
05:27PM 21.5384 -104.2767 318° Northwest  Level Estimated
05:28PM 21.6108 -104.3461 318° Northwest  Level Estimated
05:29PM 21.6832 -104.4157 318° Northwest  Level Estimated
05:30PM 21.7555 -104.4853 318° Northwest  Level Estimated
05:31PM 21.8279 -104.5550 318° Northwest  Level Estimated
05:32PM 21.9002 -104.6247 318° Northwest  Level Estimated
05:33PM 21.9724 -104.6945 318° Northwest  Level Estimated
05:34PM 22.0446 -104.7645 318° Northwest  Level Estimated
05:35PM 22.1168 -104.8344 318° Northwest  Level Estimated
05:36PM 22.1890 -104.9045 318° Northwest  Level Estimated
05:37PM 22.2612 -104.9746 318° Northwest  Level Estimated
05:38PM 22.3333 -105.0447 318° Northwest  Level Estimated
05:39PM 22.4053 -105.1150 318° Northwest  Level Estimated
05:40PM 22.4774 -105.1853 318° Northwest  Level Estimated
05:41PM 22.5494 -105.2557 318° Northwest  Level Estimated
05:42PM 22.6214 -105.3262 318° Northwest  Level Estimated
05:43PM 22.6934 -105.3968 318° Northwest  Level Estimated
05:44PM 22.7653 -105.4674 318° Northwest  Level Estimated
05:45PM 22.8372 -105.5381 318° Northwest  Level Estimated
05:46PM 22.9090 -105.6089 318° Northwest  Level Estimated
05:47PM 22.9809 -105.6797 318° Northwest  Level Estimated
05:48PM 23.0527 -105.7506 318° Northwest  Level Estimated
05:49PM 23.1244 -105.8216 318° Northwest  Level Estimated
05:50PM 23.1962 -105.8927 318° Northwest  Level Estimated
05:51PM 23.2679 -105.9639 318° Northwest  Level Estimated
05:52PM 23.3395 -106.0351 318° Northwest  Level Estimated
05:53PM 23.4112 -106.1064 318° Northwest  Level Estimated
05:54PM 23.4828 -106.1778 318° Northwest  Level Estimated
05:55PM 23.5544 -106.2492 318° Northwest  Level Estimated
05:56PM 23.6259 -106.3208 318° Northwest  Level Estimated
05:57PM 23.6974 -106.3924 317° Northwest  Level Estimated
05:58PM 23.7689 -106.4641 317° Northwest  Level Estimated
05:59PM 23.8403 -106.5359 317° Northwest  Level Estimated
06:00PM 23.9118 -106.6077 317° Northwest  Level Estimated
06:01PM 23.9831 -106.6796 317° Northwest  Level Estimated
06:02PM 24.0545 -106.7516 317° Northwest  Level Estimated
06:03PM 24.1258 -106.8237 317° Northwest  Level Estimated
06:04PM 24.1971 -106.8959 317° Northwest  Level Estimated
06:05PM 24.2683 -106.9682 317° Northwest  Level Estimated
06:06PM 24.3395 -107.0405 317° Northwest  Level Estimated
06:07PM 24.4107 -107.1129 317° Northwest  Level Estimated
06:08PM 24.4818 -107.1854 317° Northwest  Level Estimated
06:09PM 24.5529 -107.2580 317° Northwest  Level Estimated
06:10PM 24.6240 -107.3307 317° Northwest  Level Estimated
06:11PM 24.6950 -107.4034 317° Northwest  Level Estimated
06:12PM 24.7645 -107.4747 317° Northwest  Level Estimated
06:13PM 24.7645 -107.4747 138° Southeast  Level Estimated
06:14PM 24.7645 -107.4747 138° Southeast  Level Estimated
06:15PM 24.7645 -107.4747 138° Southeast  Level Estimated
06:16PM 24.7645 -107.4747 138° Southeast  Level Estimated
06:17PM 24.7645 -107.4747 138° Southeast  Level Estimated
06:18PM 24.7645 -107.4747 138° Southeast  Level Estimated
06:19PM 24.7645 -107.4747 138° Southeast  Level Estimated
06:20PM 24.7645 -107.4747 138° Southeast  Level Estimated
06:21PM 24.7645 -107.4747 138° Southeast  Level Estimated
06:22PM 24.7645 -107.4747 138° Southeast  Level Estimated